sensor_id;sensor_type;location;lat;lon;timestamp;P1;durP1;ratioP1;P2;durP2;ratioP2
57309;SDS011;43153;50.984;18.204;2023-06-22T00:01:20;17.30;;;10.30;;
57309;SDS011;43153;50.984;18.204;2023-06-22T00:03:47;19.40;;;11.20;;
57309;SDS011;43153;50.984;18.204;2023-06-22T00:06:13;16.00;;;11.10;;
57309;SDS011;43153;50.984;18.204;2023-06-22T00:08:39;18.20;;;11.20;;
57309;SDS011;43153;50.984;18.204;2023-06-22T00:11:09;17.40;;;10.50;;
57309;SDS011;43153;50.984;18.204;2023-06-22T00:13:35;15.30;;;9.60;;
57309;SDS011;43153;50.984;18.204;2023-06-22T00:16:02;18.20;;;11.20;;
57309;SDS011;43153;50.984;18.204;2023-06-22T00:18:29;18.20;;;11.20;;
57309;SDS011;43153;50.984;18.204;2023-06-22T00:20:55;21.90;;;11.10;;
57309;SDS011;43153;50.984;18.204;2023-06-22T00:23:24;18.40;;;10.60;;
57309;SDS011;43153;50.984;18.204;2023-06-22T00:25:51;19.50;;;11.80;;
57309;SDS011;43153;50.984;18.204;2023-06-22T00:28:18;19.20;;;10.40;;
57309;SDS011;43153;50.984;18.204;2023-06-22T00:30:44;20.10;;;11.30;;
57309;SDS011;43153;50.984;18.204;2023-06-22T00:33:11;18.70;;;12.00;;
57309;SDS011;43153;50.984;18.204;2023-06-22T00:35:37;19.80;;;12.40;;
57309;SDS011;43153;50.984;18.204;2023-06-22T00:38:02;19.60;;;12.60;;
57309;SDS011;43153;50.984;18.204;2023-06-22T00:40:30;22.20;;;12.80;;
57309;SDS011;43153;50.984;18.204;2023-06-22T00:42:59;22.00;;;13.20;;
57309;SDS011;43153;50.984;18.204;2023-06-22T00:45:26;20.90;;;13.10;;
57309;SDS011;43153;50.984;18.204;2023-06-22T00:47:54;21.50;;;14.00;;
57309;SDS011;43153;50.984;18.204;2023-06-22T00:50:24;24.90;;;14.60;;
57309;SDS011;43153;50.984;18.204;2023-06-22T00:52:52;25.00;;;15.40;;
57309;SDS011;43153;50.984;18.204;2023-06-22T00:55:24;26.70;;;16.00;;
57309;SDS011;43153;50.984;18.204;2023-06-22T00:57:53;28.30;;;15.80;;
57309;SDS011;43153;50.984;18.204;2023-06-22T01:00:23;25.10;;;16.40;;
57309;SDS011;43153;50.984;18.204;2023-06-22T01:02:50;26.30;;;16.10;;
57309;SDS011;43153;50.984;18.204;2023-06-22T01:05:21;26.80;;;16.30;;
57309;SDS011;43153;50.984;18.204;2023-06-22T01:08:08;28.40;;;16.80;;
57309;SDS011;43153;50.984;18.204;2023-06-22T01:10:50;26.50;;;16.80;;
57309;SDS011;43153;50.984;18.204;2023-06-22T01:13:28;25.80;;;17.30;;
57309;SDS011;43153;50.984;18.204;2023-06-22T01:16:05;27.40;;;18.10;;
57309;SDS011;43153;50.984;18.204;2023-06-22T01:18:36;28.70;;;18.50;;
57309;SDS011;43153;50.984;18.204;2023-06-22T01:21:04;28.60;;;18.80;;
57309;SDS011;43153;50.984;18.204;2023-06-22T01:31:23;30.30;;;18.20;;
57309;SDS011;43153;50.984;18.204;2023-06-22T01:33:51;27.10;;;18.50;;
57309;SDS011;43153;50.984;18.204;2023-06-22T01:36:22;29.90;;;20.10;;
57309;SDS011;43153;50.984;18.204;2023-06-22T01:38:49;29.00;;;18.60;;
57309;SDS011;43153;50.984;18.204;2023-06-22T01:41:20;28.40;;;18.10;;
57309;SDS011;43153;50.984;18.204;2023-06-22T01:43:48;32.70;;;19.20;;
57309;SDS011;43153;50.984;18.204;2023-06-22T01:46:20;30.00;;;21.10;;
57309;SDS011;43153;50.984;18.204;2023-06-22T01:48:49;25.90;;;18.10;;
57309;SDS011;43153;50.984;18.204;2023-06-22T01:51:18;27.80;;;19.70;;
57309;SDS011;43153;50.984;18.204;2023-06-22T01:53:45;29.80;;;20.60;;
57309;SDS011;43153;50.984;18.204;2023-06-22T01:56:16;28.50;;;19.40;;
57309;SDS011;43153;50.984;18.204;2023-06-22T02:02:06;27.80;;;18.20;;
57309;SDS011;43153;50.984;18.204;2023-06-22T02:04:34;29.90;;;20.10;;
57309;SDS011;43153;50.984;18.204;2023-06-22T02:07:05;29.90;;;20.20;;
57309;SDS011;43153;50.984;18.204;2023-06-22T02:09:35;28.20;;;19.10;;
57309;SDS011;43153;50.984;18.204;2023-06-22T02:12:07;28.90;;;20.60;;
57309;SDS011;43153;50.984;18.204;2023-06-22T02:14:35;30.20;;;18.10;;
57309;SDS011;43153;50.984;18.204;2023-06-22T02:17:08;28.40;;;19.60;;
57309;SDS011;43153;50.984;18.204;2023-06-22T02:19:36;29.00;;;19.30;;
57309;SDS011;43153;50.984;18.204;2023-06-22T02:22:04;36.20;;;20.10;;
57309;SDS011;43153;50.984;18.204;2023-06-22T02:24:31;30.00;;;19.70;;
57309;SDS011;43153;50.984;18.204;2023-06-22T02:26:59;29.00;;;20.40;;
57309;SDS011;43153;50.984;18.204;2023-06-22T02:29:27;31.20;;;20.40;;
57309;SDS011;43153;50.984;18.204;2023-06-22T02:31:59;32.60;;;20.40;;
57309;SDS011;43153;50.984;18.204;2023-06-22T02:34:26;34.30;;;22.50;;
57309;SDS011;43153;50.984;18.204;2023-06-22T02:36:52;31.50;;;20.50;;
57309;SDS011;43153;50.984;18.204;2023-06-22T02:39:23;32.10;;;21.70;;
57309;SDS011;43153;50.984;18.204;2023-06-22T02:41:50;35.20;;;21.50;;
57309;SDS011;43153;50.984;18.204;2023-06-22T02:44:16;33.40;;;21.20;;
57309;SDS011;43153;50.984;18.204;2023-06-22T02:46:44;32.00;;;22.80;;
57309;SDS011;43153;50.984;18.204;2023-06-22T02:49:11;31.40;;;21.40;;
57309;SDS011;43153;50.984;18.204;2023-06-22T02:51:45;29.40;;;21.30;;
57309;SDS011;43153;50.984;18.204;2023-06-22T02:54:14;32.50;;;22.00;;
57309;SDS011;43153;50.984;18.204;2023-06-22T02:56:44;36.40;;;24.10;;
57309;SDS011;43153;50.984;18.204;2023-06-22T02:59:14;32.20;;;22.60;;
57309;SDS011;43153;50.984;18.204;2023-06-22T03:01:39;35.60;;;23.20;;
57309;SDS011;43153;50.984;18.204;2023-06-22T03:04:08;38.10;;;24.40;;
57309;SDS011;43153;50.984;18.204;2023-06-22T03:06:35;34.80;;;23.40;;
57309;SDS011;43153;50.984;18.204;2023-06-22T03:09:06;35.80;;;22.60;;
57309;SDS011;43153;50.984;18.204;2023-06-22T03:11:32;33.10;;;22.40;;
57309;SDS011;43153;50.984;18.204;2023-06-22T03:14:02;34.00;;;22.60;;
57309;SDS011;43153;50.984;18.204;2023-06-22T03:16:32;35.70;;;23.40;;
57309;SDS011;43153;50.984;18.204;2023-06-22T03:19:01;32.60;;;22.80;;
57309;SDS011;43153;50.984;18.204;2023-06-22T03:21:30;36.80;;;25.20;;
57309;SDS011;43153;50.984;18.204;2023-06-22T03:23:57;39.60;;;24.60;;
57309;SDS011;43153;50.984;18.204;2023-06-22T03:26:34;35.40;;;24.80;;
57309;SDS011;43153;50.984;18.204;2023-06-22T03:29:01;36.40;;;24.30;;
57309;SDS011;43153;50.984;18.204;2023-06-22T03:31:29;36.30;;;24.40;;
57309;SDS011;43153;50.984;18.204;2023-06-22T03:33:55;36.90;;;25.80;;
57309;SDS011;43153;50.984;18.204;2023-06-22T03:36:23;35.10;;;24.50;;
57309;SDS011;43153;50.984;18.204;2023-06-22T03:38:49;34.50;;;24.80;;
57309;SDS011;43153;50.984;18.204;2023-06-22T03:41:16;39.00;;;26.10;;
57309;SDS011;43153;50.984;18.204;2023-06-22T03:43:45;34.30;;;24.40;;
57309;SDS011;43153;50.984;18.204;2023-06-22T03:46:11;38.20;;;24.90;;
57309;SDS011;43153;50.984;18.204;2023-06-22T03:48:37;33.10;;;24.60;;
57309;SDS011;43153;50.984;18.204;2023-06-22T03:51:03;37.90;;;25.40;;
57309;SDS011;43153;50.984;18.204;2023-06-22T03:53:29;36.00;;;25.80;;
57309;SDS011;43153;50.984;18.204;2023-06-22T03:55:55;33.90;;;25.20;;
57309;SDS011;43153;50.984;18.204;2023-06-22T03:58:21;37.30;;;25.70;;
57309;SDS011;43153;50.984;18.204;2023-06-22T04:00:49;36.70;;;26.30;;
57309;SDS011;43153;50.984;18.204;2023-06-22T04:03:16;37.50;;;26.00;;
57309;SDS011;43153;50.984;18.204;2023-06-22T04:05:45;37.10;;;25.20;;
57309;SDS011;43153;50.984;18.204;2023-06-22T04:08:12;35.80;;;26.20;;
57309;SDS011;43153;50.984;18.204;2023-06-22T04:10:39;37.00;;;25.70;;
57309;SDS011;43153;50.984;18.204;2023-06-22T04:13:05;33.90;;;24.40;;
57309;SDS011;43153;50.984;18.204;2023-06-22T04:15:32;34.40;;;25.50;;
57309;SDS011;43153;50.984;18.204;2023-06-22T04:17:58;35.10;;;24.60;;
57309;SDS011;43153;50.984;18.204;2023-06-22T04:20:24;38.40;;;26.70;;
57309;SDS011;43153;50.984;18.204;2023-06-22T04:22:53;36.80;;;25.70;;
57309;SDS011;43153;50.984;18.204;2023-06-22T04:25:20;36.20;;;25.60;;
57309;SDS011;43153;50.984;18.204;2023-06-22T04:27:47;34.40;;;24.80;;
57309;SDS011;43153;50.984;18.204;2023-06-22T04:30:13;35.20;;;25.60;;
57309;SDS011;43153;50.984;18.204;2023-06-22T04:32:50;32.90;;;24.20;;
57309;SDS011;43153;50.984;18.204;2023-06-22T04:35:27;32.00;;;24.20;;
57309;SDS011;43153;50.984;18.204;2023-06-22T04:37:53;36.50;;;26.60;;
57309;SDS011;43153;50.984;18.204;2023-06-22T04:40:36;39.70;;;26.70;;
57309;SDS011;43153;50.984;18.204;2023-06-22T04:43:03;37.00;;;25.90;;
57309;SDS011;43153;50.984;18.204;2023-06-22T04:45:30;39.00;;;28.40;;
57309;SDS011;43153;50.984;18.204;2023-06-22T04:47:56;34.20;;;25.00;;
57309;SDS011;43153;50.984;18.204;2023-06-22T04:50:26;35.40;;;24.10;;
57309;SDS011;43153;50.984;18.204;2023-06-22T04:52:57;36.90;;;24.10;;
57309;SDS011;43153;50.984;18.204;2023-06-22T04:55:23;34.10;;;22.80;;
57309;SDS011;43153;50.984;18.204;2023-06-22T04:57:51;36.70;;;26.10;;
57309;SDS011;43153;50.984;18.204;2023-06-22T05:00:18;34.30;;;23.50;;
57309;SDS011;43153;50.984;18.204;2023-06-22T05:02:45;37.40;;;23.50;;
57309;SDS011;43153;50.984;18.204;2023-06-22T05:05:13;40.80;;;24.00;;
57309;SDS011;43153;50.984;18.204;2023-06-22T05:07:46;31.20;;;22.90;;
57309;SDS011;43153;50.984;18.204;2023-06-22T05:10:16;29.10;;;20.60;;
57309;SDS011;43153;50.984;18.204;2023-06-22T05:12:42;30.20;;;19.70;;
57309;SDS011;43153;50.984;18.204;2023-06-22T05:15:08;29.70;;;21.10;;
57309;SDS011;43153;50.984;18.204;2023-06-22T05:17:36;27.40;;;20.40;;
57309;SDS011;43153;50.984;18.204;2023-06-22T05:20:08;30.10;;;16.30;;
57309;SDS011;43153;50.984;18.204;2023-06-22T05:22:38;23.60;;;15.00;;
57309;SDS011;43153;50.984;18.204;2023-06-22T05:25:05;23.70;;;14.60;;
57309;SDS011;43153;50.984;18.204;2023-06-22T05:27:34;19.40;;;13.80;;
57309;SDS011;43153;50.984;18.204;2023-06-22T05:30:08;20.10;;;12.40;;
57309;SDS011;43153;50.984;18.204;2023-06-22T05:32:44;46.60;;;13.80;;
57309;SDS011;43153;50.984;18.204;2023-06-22T05:35:16;19.30;;;12.10;;
57309;SDS011;43153;50.984;18.204;2023-06-22T05:37:42;18.90;;;10.60;;
57309;SDS011;43153;50.984;18.204;2023-06-22T05:40:13;23.30;;;11.60;;
57309;SDS011;43153;50.984;18.204;2023-06-22T05:42:38;21.20;;;11.50;;
57309;SDS011;43153;50.984;18.204;2023-06-22T05:45:05;18.90;;;11.00;;
57309;SDS011;43153;50.984;18.204;2023-06-22T05:47:33;20.30;;;11.90;;
57309;SDS011;43153;50.984;18.204;2023-06-22T05:50:00;21.00;;;11.00;;
57309;SDS011;43153;50.984;18.204;2023-06-22T05:52:26;18.50;;;11.00;;
57309;SDS011;43153;50.984;18.204;2023-06-22T05:54:53;26.30;;;11.90;;
57309;SDS011;43153;50.984;18.204;2023-06-22T05:57:19;26.10;;;12.40;;
57309;SDS011;43153;50.984;18.204;2023-06-22T05:59:48;24.60;;;11.60;;
57309;SDS011;43153;50.984;18.204;2023-06-22T06:02:17;20.10;;;10.70;;
57309;SDS011;43153;50.984;18.204;2023-06-22T06:04:44;21.40;;;9.90;;
57309;SDS011;43153;50.984;18.204;2023-06-22T06:07:16;16.40;;;9.30;;
57309;SDS011;43153;50.984;18.204;2023-06-22T06:09:43;28.00;;;10.60;;
57309;SDS011;43153;50.984;18.204;2023-06-22T06:12:09;15.90;;;9.20;;
57309;SDS011;43153;50.984;18.204;2023-06-22T06:14:36;42.10;;;12.70;;
57309;SDS011;43153;50.984;18.204;2023-06-22T06:17:03;20.60;;;8.70;;
57309;SDS011;43153;50.984;18.204;2023-06-22T06:19:39;14.80;;;9.30;;
57309;SDS011;43153;50.984;18.204;2023-06-22T06:22:06;13.70;;;8.10;;
57309;SDS011;43153;50.984;18.204;2023-06-22T06:24:34;18.50;;;8.50;;
57309;SDS011;43153;50.984;18.204;2023-06-22T06:27:00;18.20;;;8.20;;
57309;SDS011;43153;50.984;18.204;2023-06-22T06:29:31;14.20;;;7.10;;
57309;SDS011;43153;50.984;18.204;2023-06-22T06:31:58;11.90;;;7.10;;
57309;SDS011;43153;50.984;18.204;2023-06-22T06:34:24;13.90;;;8.00;;
57309;SDS011;43153;50.984;18.204;2023-06-22T06:36:58;27.00;;;8.30;;
57309;SDS011;43153;50.984;18.204;2023-06-22T06:39:28;11.70;;;7.00;;
57309;SDS011;43153;50.984;18.204;2023-06-22T06:42:02;11.70;;;7.70;;
57309;SDS011;43153;50.984;18.204;2023-06-22T06:44:29;12.60;;;7.40;;
57309;SDS011;43153;50.984;18.204;2023-06-22T06:46:55;14.20;;;7.50;;
57309;SDS011;43153;50.984;18.204;2023-06-22T06:49:21;15.20;;;7.70;;
57309;SDS011;43153;50.984;18.204;2023-06-22T06:51:47;12.90;;;7.70;;
57309;SDS011;43153;50.984;18.204;2023-06-22T06:54:28;14.20;;;7.10;;
57309;SDS011;43153;50.984;18.204;2023-06-22T06:56:56;13.10;;;7.50;;
57309;SDS011;43153;50.984;18.204;2023-06-22T06:59:22;12.20;;;7.00;;
57309;SDS011;43153;50.984;18.204;2023-06-22T07:01:52;13.40;;;7.40;;
57309;SDS011;43153;50.984;18.204;2023-06-22T07:04:18;11.20;;;7.20;;
57309;SDS011;43153;50.984;18.204;2023-06-22T07:06:44;14.80;;;8.00;;
57309;SDS011;43153;50.984;18.204;2023-06-22T07:09:11;11.10;;;7.00;;
57309;SDS011;43153;50.984;18.204;2023-06-22T07:11:38;13.50;;;7.80;;
57309;SDS011;43153;50.984;18.204;2023-06-22T07:14:03;13.80;;;7.70;;
57309;SDS011;43153;50.984;18.204;2023-06-22T07:16:30;15.00;;;8.10;;
57309;SDS011;43153;50.984;18.204;2023-06-22T07:18:56;14.00;;;7.30;;
57309;SDS011;43153;50.984;18.204;2023-06-22T07:21:22;18.40;;;8.30;;
57309;SDS011;43153;50.984;18.204;2023-06-22T07:23:48;13.00;;;8.90;;
57309;SDS011;43153;50.984;18.204;2023-06-22T07:26:23;14.00;;;8.50;;
57309;SDS011;43153;50.984;18.204;2023-06-22T07:28:49;11.70;;;8.10;;
57309;SDS011;43153;50.984;18.204;2023-06-22T07:31:16;14.20;;;7.40;;
57309;SDS011;43153;50.984;18.204;2023-06-22T07:33:45;14.10;;;8.30;;
57309;SDS011;43153;50.984;18.204;2023-06-22T07:36:16;13.30;;;7.30;;
57309;SDS011;43153;50.984;18.204;2023-06-22T07:38:43;14.90;;;7.90;;
57309;SDS011;43153;50.984;18.204;2023-06-22T07:41:13;10.30;;;6.90;;
57309;SDS011;43153;50.984;18.204;2023-06-22T07:43:46;12.60;;;7.10;;
57309;SDS011;43153;50.984;18.204;2023-06-22T07:46:15;11.30;;;7.30;;
57309;SDS011;43153;50.984;18.204;2023-06-22T07:48:42;11.10;;;7.60;;
57309;SDS011;43153;50.984;18.204;2023-06-22T07:51:10;12.60;;;8.10;;
57309;SDS011;43153;50.984;18.204;2023-06-22T07:53:40;20.50;;;8.70;;
57309;SDS011;43153;50.984;18.204;2023-06-22T07:56:31;13.20;;;8.50;;
57309;SDS011;43153;50.984;18.204;2023-06-22T07:58:59;13.50;;;8.40;;
57309;SDS011;43153;50.984;18.204;2023-06-22T08:01:28;11.80;;;8.20;;
57309;SDS011;43153;50.984;18.204;2023-06-22T08:03:54;12.10;;;7.70;;
57309;SDS011;43153;50.984;18.204;2023-06-22T08:06:20;11.80;;;8.10;;
57309;SDS011;43153;50.984;18.204;2023-06-22T08:08:46;15.30;;;7.90;;
57309;SDS011;43153;50.984;18.204;2023-06-22T08:11:18;11.20;;;7.80;;
57309;SDS011;43153;50.984;18.204;2023-06-22T08:13:49;12.30;;;7.80;;
57309;SDS011;43153;50.984;18.204;2023-06-22T08:16:21;11.50;;;7.90;;
57309;SDS011;43153;50.984;18.204;2023-06-22T08:18:51;14.10;;;8.40;;
57309;SDS011;43153;50.984;18.204;2023-06-22T08:21:17;10.40;;;7.10;;
57309;SDS011;43153;50.984;18.204;2023-06-22T08:23:44;11.60;;;7.10;;
57309;SDS011;43153;50.984;18.204;2023-06-22T08:26:10;11.00;;;7.00;;
57309;SDS011;43153;50.984;18.204;2023-06-22T08:28:38;10.90;;;7.40;;
57309;SDS011;43153;50.984;18.204;2023-06-22T08:31:04;11.10;;;7.20;;
57309;SDS011;43153;50.984;18.204;2023-06-22T08:33:31;11.60;;;7.60;;
57309;SDS011;43153;50.984;18.204;2023-06-22T08:35:57;12.90;;;7.50;;
57309;SDS011;43153;50.984;18.204;2023-06-22T08:38:24;11.80;;;7.20;;
57309;SDS011;43153;50.984;18.204;2023-06-22T08:40:50;10.70;;;7.30;;
57309;SDS011;43153;50.984;18.204;2023-06-22T08:43:16;11.90;;;7.00;;
57309;SDS011;43153;50.984;18.204;2023-06-22T09:24:53;9.30;;;6.00;;
57309;SDS011;43153;50.984;18.204;2023-06-22T09:27:23;10.20;;;6.30;;
57309;SDS011;43153;50.984;18.204;2023-06-22T09:29:55;12.60;;;6.90;;
57309;SDS011;43153;50.984;18.204;2023-06-22T09:32:24;10.10;;;6.70;;
57309;SDS011;43153;50.984;18.204;2023-06-22T09:34:52;11.10;;;6.50;;
57309;SDS011;43153;50.984;18.204;2023-06-22T09:37:18;12.20;;;6.10;;
57309;SDS011;43153;50.984;18.204;2023-06-22T09:39:44;12.80;;;6.50;;
57309;SDS011;43153;50.984;18.204;2023-06-22T09:42:10;11.40;;;6.40;;
57309;SDS011;43153;50.984;18.204;2023-06-22T09:44:36;14.00;;;6.10;;
57309;SDS011;43153;50.984;18.204;2023-06-22T09:47:05;7.50;;;5.40;;
57309;SDS011;43153;50.984;18.204;2023-06-22T09:49:31;12.00;;;6.60;;
57309;SDS011;43153;50.984;18.204;2023-06-22T09:51:58;10.10;;;5.30;;
57309;SDS011;43153;50.984;18.204;2023-06-22T09:54:24;8.30;;;5.00;;
57309;SDS011;43153;50.984;18.204;2023-06-22T09:56:51;9.30;;;6.30;;
57309;SDS011;43153;50.984;18.204;2023-06-22T09:59:17;19.50;;;6.10;;
57309;SDS011;43153;50.984;18.204;2023-06-22T10:01:43;10.50;;;6.00;;
57309;SDS011;43153;50.984;18.204;2023-06-22T10:04:11;10.20;;;5.30;;
57309;SDS011;43153;50.984;18.204;2023-06-22T10:06:37;8.10;;;5.50;;
57309;SDS011;43153;50.984;18.204;2023-06-22T10:09:06;8.10;;;5.00;;
57309;SDS011;43153;50.984;18.204;2023-06-22T10:11:33;9.10;;;5.80;;
57309;SDS011;43153;50.984;18.204;2023-06-22T10:14:01;9.80;;;5.30;;
57309;SDS011;43153;50.984;18.204;2023-06-22T10:16:30;8.50;;;5.50;;
57309;SDS011;43153;50.984;18.204;2023-06-22T10:19:00;7.30;;;4.90;;
57309;SDS011;43153;50.984;18.204;2023-06-22T10:21:31;10.10;;;5.30;;
57309;SDS011;43153;50.984;18.204;2023-06-22T10:24:03;8.70;;;4.90;;
57309;SDS011;43153;50.984;18.204;2023-06-22T10:26:32;13.00;;;5.50;;
57309;SDS011;43153;50.984;18.204;2023-06-22T10:29:04;8.70;;;4.00;;
57309;SDS011;43153;50.984;18.204;2023-06-22T10:31:33;7.30;;;3.90;;
57309;SDS011;43153;50.984;18.204;2023-06-22T10:34:01;9.80;;;4.50;;
57309;SDS011;43153;50.984;18.204;2023-06-22T10:36:28;8.10;;;4.50;;
57309;SDS011;43153;50.984;18.204;2023-06-22T10:38:53;6.80;;;4.20;;
57309;SDS011;43153;50.984;18.204;2023-06-22T10:41:21;8.70;;;4.60;;
57309;SDS011;43153;50.984;18.204;2023-06-22T10:43:50;6.20;;;3.80;;
57309;SDS011;43153;50.984;18.204;2023-06-22T10:46:17;5.60;;;3.70;;
57309;SDS011;43153;50.984;18.204;2023-06-22T10:48:44;6.70;;;3.80;;
57309;SDS011;43153;50.984;18.204;2023-06-22T10:51:10;8.80;;;3.90;;
57309;SDS011;43153;50.984;18.204;2023-06-22T10:53:36;7.80;;;4.40;;
57309;SDS011;43153;50.984;18.204;2023-06-22T10:56:03;7.70;;;4.40;;
57309;SDS011;43153;50.984;18.204;2023-06-22T10:58:30;7.30;;;3.80;;
57309;SDS011;43153;50.984;18.204;2023-06-22T11:00:56;6.50;;;3.90;;
57309;SDS011;43153;50.984;18.204;2023-06-22T11:03:22;7.20;;;3.70;;
57309;SDS011;43153;50.984;18.204;2023-06-22T11:05:55;8.50;;;4.10;;
57309;SDS011;43153;50.984;18.204;2023-06-22T11:08:24;6.80;;;3.80;;
57309;SDS011;43153;50.984;18.204;2023-06-22T11:10:59;7.10;;;4.20;;
57309;SDS011;43153;50.984;18.204;2023-06-22T11:13:30;7.90;;;3.90;;
57309;SDS011;43153;50.984;18.204;2023-06-22T11:15:58;6.30;;;3.70;;
57309;SDS011;43153;50.984;18.204;2023-06-22T11:18:46;6.30;;;3.80;;
57309;SDS011;43153;50.984;18.204;2023-06-22T11:21:12;7.20;;;3.60;;
57309;SDS011;43153;50.984;18.204;2023-06-22T11:23:38;6.70;;;3.90;;
57309;SDS011;43153;50.984;18.204;2023-06-22T11:26:07;7.70;;;4.70;;
57309;SDS011;43153;50.984;18.204;2023-06-22T11:28:33;7.60;;;4.50;;
57309;SDS011;43153;50.984;18.204;2023-06-22T11:31:04;7.50;;;4.80;;
57309;SDS011;43153;50.984;18.204;2023-06-22T11:33:33;7.10;;;3.90;;
57309;SDS011;43153;50.984;18.204;2023-06-22T11:36:02;6.60;;;4.10;;
57309;SDS011;43153;50.984;18.204;2023-06-22T11:38:34;7.20;;;4.10;;
57309;SDS011;43153;50.984;18.204;2023-06-22T11:41:06;6.70;;;4.00;;
57309;SDS011;43153;50.984;18.204;2023-06-22T11:43:33;6.40;;;3.90;;
57309;SDS011;43153;50.984;18.204;2023-06-22T11:46:03;6.70;;;3.50;;
57309;SDS011;43153;50.984;18.204;2023-06-22T11:48:29;6.40;;;3.80;;
57309;SDS011;43153;50.984;18.204;2023-06-22T11:50:55;9.60;;;3.90;;
57309;SDS011;43153;50.984;18.204;2023-06-22T11:53:24;7.30;;;3.80;;
57309;SDS011;43153;50.984;18.204;2023-06-22T11:55:53;8.20;;;4.60;;
57309;SDS011;43153;50.984;18.204;2023-06-22T11:58:20;6.70;;;3.70;;
57309;SDS011;43153;50.984;18.204;2023-06-22T12:00:49;6.90;;;4.10;;
57309;SDS011;43153;50.984;18.204;2023-06-22T12:03:18;6.70;;;3.50;;
57309;SDS011;43153;50.984;18.204;2023-06-22T12:05:47;6.70;;;4.50;;
57309;SDS011;43153;50.984;18.204;2023-06-22T12:08:15;21.40;;;4.90;;
57309;SDS011;43153;50.984;18.204;2023-06-22T12:10:41;6.90;;;3.50;;
57309;SDS011;43153;50.984;18.204;2023-06-22T12:13:08;6.20;;;3.30;;
57309;SDS011;43153;50.984;18.204;2023-06-22T12:15:35;9.20;;;4.40;;
57309;SDS011;43153;50.984;18.204;2023-06-22T12:18:01;5.60;;;3.50;;
57309;SDS011;43153;50.984;18.204;2023-06-22T12:20:27;7.00;;;3.80;;
57309;SDS011;43153;50.984;18.204;2023-06-22T12:22:59;7.90;;;4.00;;
57309;SDS011;43153;50.984;18.204;2023-06-22T12:25:27;5.90;;;2.90;;
57309;SDS011;43153;50.984;18.204;2023-06-22T12:27:56;7.70;;;3.40;;
57309;SDS011;43153;50.984;18.204;2023-06-22T12:30:27;6.60;;;3.80;;
57309;SDS011;43153;50.984;18.204;2023-06-22T12:32:54;5.10;;;3.10;;
57309;SDS011;43153;50.984;18.204;2023-06-22T12:35:21;6.30;;;3.10;;
57309;SDS011;43153;50.984;18.204;2023-06-22T12:37:49;5.60;;;3.20;;
57309;SDS011;43153;50.984;18.204;2023-06-22T12:40:17;5.20;;;2.80;;
57309;SDS011;43153;50.984;18.204;2023-06-22T12:42:44;5.90;;;2.80;;
57309;SDS011;43153;50.984;18.204;2023-06-22T12:45:10;5.10;;;3.20;;
57309;SDS011;43153;50.984;18.204;2023-06-22T12:47:39;5.30;;;2.70;;
57309;SDS011;43153;50.984;18.204;2023-06-22T12:50:10;6.10;;;3.30;;
57309;SDS011;43153;50.984;18.204;2023-06-22T12:52:36;5.10;;;2.60;;
57309;SDS011;43153;50.984;18.204;2023-06-22T12:55:05;6.40;;;3.30;;
57309;SDS011;43153;50.984;18.204;2023-06-22T12:57:31;5.00;;;3.00;;
57309;SDS011;43153;50.984;18.204;2023-06-22T12:59:57;5.10;;;3.30;;
57309;SDS011;43153;50.984;18.204;2023-06-22T13:02:25;7.20;;;3.20;;
57309;SDS011;43153;50.984;18.204;2023-06-22T13:04:51;6.50;;;3.30;;
57309;SDS011;43153;50.984;18.204;2023-06-22T13:07:17;6.60;;;3.30;;
57309;SDS011;43153;50.984;18.204;2023-06-22T13:09:45;6.30;;;3.20;;
57309;SDS011;43153;50.984;18.204;2023-06-22T13:12:12;5.10;;;3.20;;
57309;SDS011;43153;50.984;18.204;2023-06-22T13:14:39;6.00;;;3.80;;
57309;SDS011;43153;50.984;18.204;2023-06-22T13:17:04;6.20;;;3.50;;
57309;SDS011;43153;50.984;18.204;2023-06-22T13:19:30;5.70;;;3.10;;
57309;SDS011;43153;50.984;18.204;2023-06-22T13:21:58;6.60;;;3.90;;
57309;SDS011;43153;50.984;18.204;2023-06-22T13:24:29;6.30;;;3.40;;
57309;SDS011;43153;50.984;18.204;2023-06-22T13:26:55;5.50;;;3.00;;
57309;SDS011;43153;50.984;18.204;2023-06-22T13:29:21;5.90;;;3.80;;
57309;SDS011;43153;50.984;18.204;2023-06-22T13:31:46;5.50;;;3.00;;
57309;SDS011;43153;50.984;18.204;2023-06-22T13:34:12;5.20;;;2.90;;
57309;SDS011;43153;50.984;18.204;2023-06-22T13:36:38;6.50;;;3.60;;
57309;SDS011;43153;50.984;18.204;2023-06-22T13:39:04;5.00;;;2.90;;
57309;SDS011;43153;50.984;18.204;2023-06-22T13:41:30;5.90;;;3.40;;
57309;SDS011;43153;50.984;18.204;2023-06-22T13:43:59;4.60;;;2.80;;
57309;SDS011;43153;50.984;18.204;2023-06-22T13:46:42;6.00;;;3.10;;
57309;SDS011;43153;50.984;18.204;2023-06-22T13:49:15;6.20;;;3.50;;
57309;SDS011;43153;50.984;18.204;2023-06-22T13:51:41;7.60;;;3.10;;
57309;SDS011;43153;50.984;18.204;2023-06-22T13:54:09;5.30;;;3.00;;
57309;SDS011;43153;50.984;18.204;2023-06-22T13:56:36;4.80;;;2.80;;
57309;SDS011;43153;50.984;18.204;2023-06-22T13:59:04;5.20;;;2.80;;
57309;SDS011;43153;50.984;18.204;2023-06-22T14:01:30;7.20;;;3.70;;
57309;SDS011;43153;50.984;18.204;2023-06-22T14:04:00;5.50;;;3.50;;
57309;SDS011;43153;50.984;18.204;2023-06-22T14:06:30;7.20;;;3.70;;
57309;SDS011;43153;50.984;18.204;2023-06-22T14:09:00;10.70;;;3.50;;
57309;SDS011;43153;50.984;18.204;2023-06-22T14:11:33;5.30;;;3.30;;
57309;SDS011;43153;50.984;18.204;2023-06-22T14:14:02;5.40;;;3.40;;
57309;SDS011;43153;50.984;18.204;2023-06-22T14:16:28;8.40;;;3.70;;
57309;SDS011;43153;50.984;18.204;2023-06-22T14:18:58;6.20;;;3.30;;
57309;SDS011;43153;50.984;18.204;2023-06-22T14:21:35;7.60;;;3.70;;
57309;SDS011;43153;50.984;18.204;2023-06-22T14:24:29;7.60;;;4.20;;
57309;SDS011;43153;50.984;18.204;2023-06-22T14:26:57;7.60;;;3.70;;
57309;SDS011;43153;50.984;18.204;2023-06-22T14:29:41;6.10;;;3.70;;
57309;SDS011;43153;50.984;18.204;2023-06-22T14:32:10;7.70;;;4.20;;
57309;SDS011;43153;50.984;18.204;2023-06-22T14:34:36;6.80;;;4.10;;
57309;SDS011;43153;50.984;18.204;2023-06-22T14:37:07;6.90;;;3.60;;
57309;SDS011;43153;50.984;18.204;2023-06-22T14:39:35;6.40;;;3.50;;
57309;SDS011;43153;50.984;18.204;2023-06-22T14:42:05;6.70;;;4.20;;
57309;SDS011;43153;50.984;18.204;2023-06-22T14:44:33;6.70;;;4.10;;
57309;SDS011;43153;50.984;18.204;2023-06-22T14:47:01;7.00;;;4.40;;
57309;SDS011;43153;50.984;18.204;2023-06-22T14:49:27;6.80;;;3.80;;
57309;SDS011;43153;50.984;18.204;2023-06-22T14:51:54;6.10;;;4.00;;
57309;SDS011;43153;50.984;18.204;2023-06-22T14:54:24;6.80;;;3.40;;
57309;SDS011;43153;50.984;18.204;2023-06-22T14:56:52;6.80;;;3.80;;
57309;SDS011;43153;50.984;18.204;2023-06-22T14:59:18;6.90;;;3.80;;
57309;SDS011;43153;50.984;18.204;2023-06-22T15:01:48;6.00;;;3.80;;
57309;SDS011;43153;50.984;18.204;2023-06-22T15:04:16;6.90;;;3.70;;
57309;SDS011;43153;50.984;18.204;2023-06-22T15:06:43;8.00;;;4.20;;
57309;SDS011;43153;50.984;18.204;2023-06-22T15:09:14;6.90;;;4.30;;
57309;SDS011;43153;50.984;18.204;2023-06-22T15:11:46;7.20;;;4.20;;
57309;SDS011;43153;50.984;18.204;2023-06-22T15:54:22;7.20;;;3.70;;
57309;SDS011;43153;50.984;18.204;2023-06-22T15:56:55;7.00;;;4.00;;
57309;SDS011;43153;50.984;18.204;2023-06-22T16:01:54;6.40;;;3.90;;